Time;durP1;ratioP1;P1;durP2;ratioP2;P2;SDS_P1;SDS_P2;PMS_P1;PMS_P2;Temp;Humidity;BMP_temperature;BMP_pressure;BME280_temperature;BME280_humidity;BME280_pressure;Samples;Min_cycle;Max_cycle;Signal;HPM_P1;HPM_P2
2022/04/21 00:00:50;;;;;;;;;;;18.60;57.60;;;;;;5016448;28;1369;-69
2022/04/21 00:03:15;;;;;;;;;;;18.60;57.60;;;;;;5016551;28;1293;-69
2022/04/21 00:05:40;;;;;;;;;;;18.60;57.60;;;;;;5016012;28;1387;-68
2022/04/21 00:08:06;;;;;;;;;;;18.60;57.60;;;;;;5017020;28;1365;-69
2022/04/21 00:10:31;;;;;;;;;;;18.60;57.60;;;;;;4998984;28;1428;-68
2022/04/21 00:12:57;;;;;;;;;;;18.60;57.70;;;;;;5016580;28;1080;-68
2022/04/21 00:15:22;;;;;;;;;;;18.60;57.70;;;;;;5016356;28;1365;-68
2022/04/21 00:17:48;;;;;;;;;;;18.60;57.70;;;;;;4989259;28;1902;-68
2022/04/21 00:20:13;;;;;;;;;;;18.60;57.70;;;;;;5015395;28;1358;-68
2022/04/21 00:25:23;;;;;;;;;;;18.60;57.70;;;;;;5016274;28;1245;-69
2022/04/21 00:27:49;;;;;;;;;;;18.60;57.70;;;;;;4998467;28;1287;-68
2022/04/21 00:30:15;;;;;;;;;;;18.60;57.80;;;;;;4998476;28;1283;-68
2022/04/21 00:32:41;;;;;;;;;;;18.60;57.80;;;;;;5016256;28;1322;-69
2022/04/21 00:35:07;;;;;;;;;;;18.60;58.40;;;;;;5016011;28;1355;-69
2022/04/21 00:37:32;;;;;;;;;;;18.60;57.80;;;;;;5004291;28;1890;-69
2022/04/21 00:39:57;;;;;;;;;;;18.60;57.90;;;;;;5015809;28;1300;-69
2022/04/21 00:42:23;;;;;;;;;;;18.60;57.90;;;;;;5016131;28;1285;-69
2022/04/21 00:44:51;;;;;;;;;;;18.60;57.90;;;;;;5015898;28;1346;-69
2022/04/21 00:47:17;;;;;;;;;;;18.60;57.90;;;;;;5015630;28;1081;-69
2022/04/21 00:49:43;;;;;;;;;;;18.60;57.90;;;;;;5015864;28;1428;-69
2022/04/21 00:52:09;;;;;;;;;;;18.60;57.90;;;;;;4998366;28;1071;-68
2022/04/21 00:54:34;;;;;;;;;;;18.60;57.90;;;;;;4998236;28;1367;-69
2022/04/21 00:57:00;;;;;;;;;;;18.60;58.00;;;;;;5015455;28;1906;-69
2022/04/21 00:59:25;;;;;;;;;;;18.60;58.00;;;;;;5015108;28;1296;-68
2022/04/21 01:04:35;;;;;;;;;;;18.60;58.00;;;;;;5000709;28;1265;-68
2022/04/21 01:07:00;;;;;;;;;;;18.60;58.00;;;;;;5015148;28;1313;-68
2022/04/21 01:09:26;;;;;;;;;;;18.60;58.00;;;;;;4997998;28;1483;-68
2022/04/21 01:11:51;;;;;;;;;;;18.60;58.00;;;;;;5015149;28;1306;-68
2022/04/21 01:14:17;;;;;;;;;;;18.60;58.00;;;;;;4997939;28;1287;-68
2022/04/21 01:16:42;;;;;;;;;;;18.60;58.10;;;;;;5014904;28;1898;-69
2022/04/21 01:19:07;;;;;;;;;;;18.60;58.10;;;;;;5015282;28;1091;-69
2022/04/21 01:21:33;;;;;;;;;;;18.50;58.00;;;;;;5015140;28;1345;-68
2022/04/21 01:23:58;;;;;;;;;;;18.50;58.00;;;;;;5015309;28;1303;-68
2022/04/21 01:26:28;;;;;;;;;;;18.50;58.10;;;;;;5014716;28;1303;-69
2022/04/21 01:28:53;;;;;;;;;;;18.50;58.10;;;;;;5015063;28;1365;-68
2022/04/21 01:31:22;;;;;;;;;;;18.50;58.10;;;;;;4997811;28;1348;-68
2022/04/21 01:33:47;;;;;;;;;;;18.50;58.10;;;;;;5015345;28;1379;-68
2022/04/21 01:36:13;;;;;;;;;;;18.50;58.10;;;;;;4995486;28;1891;-69
2022/04/21 01:41:27;;;;;;;;;;;18.50;58.10;;;;;;5004664;28;1386;-68
2022/04/21 01:43:52;;;;;;;;;;;18.50;58.20;;;;;;5014880;28;1290;-68
2022/04/21 01:46:17;;;;;;;;;;;18.50;58.20;;;;;;4996920;28;1296;-68
2022/04/21 01:48:43;;;;;;;;;;;18.50;58.20;;;;;;5014626;28;1430;-68
2022/04/21 01:51:08;;;;;;;;;;;18.50;58.20;;;;;;5014699;28;1379;-68
2022/04/21 01:53:34;;;;;;;;;;;18.50;58.20;;;;;;4997050;28;1096;-69
2022/04/21 01:55:59;;;;;;;;;;;18.50;58.20;;;;;;5014215;28;1398;-68
2022/04/21 01:58:25;;;;;;;;;;;18.50;58.80;;;;;;5014487;28;1902;-68
2022/04/21 02:00:51;;;;;;;;;;;18.50;58.20;;;;;;5014488;28;1146;-69
2022/04/21 02:03:16;;;;;;;;;;;18.50;58.30;;;;;;5014459;28;1497;-68
2022/04/21 02:05:41;;;;;;;;;;;18.50;58.30;;;;;;5013969;28;1482;-69
2022/04/21 02:08:07;;;;;;;;;;;18.50;58.30;;;;;;4980576;28;1365;-69
2022/04/21 02:10:32;;;;;;;;;;;18.50;58.30;;;;;;5028101;22;2159;-70
2022/04/21 02:12:58;;;;;;;;;;;18.50;58.30;;;;;;4996745;28;1328;-70
2022/04/21 02:15:23;;;;;;;;;;;18.50;58.30;;;;;;4996920;28;1581;-69
2022/04/21 02:17:49;;;;;;;;;;;18.50;58.30;;;;;;5006418;28;1917;-69
2022/04/21 02:20:15;;;;;;;;;;;18.50;58.30;;;;;;4986971;28;1394;-70
2022/04/21 02:22:40;;;;;;;;;;;18.50;58.30;;;;;;4993259;28;1298;-70
2022/04/21 02:25:06;;;;;;;;;;;18.50;58.30;;;;;;4993236;28;1117;-69
2022/04/21 02:27:32;;;;;;;;;;;18.50;58.40;;;;;;4994290;28;1168;-69
2022/04/21 02:29:57;;;;;;;;;;;18.50;58.40;;;;;;4995265;28;1373;-70
2022/04/21 02:32:23;;;;;;;;;;;18.40;58.30;;;;;;4993947;28;1073;-70
2022/04/21 02:34:48;;;;;;;;;;;18.50;58.40;;;;;;5000283;28;1302;-69
2022/04/21 02:37:14;;;;;;;;;;;18.50;59.00;;;;;;4986220;28;1899;-69
2022/04/21 02:39:39;;;;;;;;;;;18.50;58.40;;;;;;4994220;28;1264;-70
2022/04/21 02:42:05;;;;;;;;;;;18.40;58.30;;;;;;4993006;28;1163;-70
2022/04/21 02:44:30;;;;;;;;;;;18.40;58.40;;;;;;4992965;28;1327;-69
2022/04/21 02:46:56;;;;;;;;;;;18.50;58.40;;;;;;4993806;28;1109;-70
2022/04/21 02:49:22;;;;;;;;;;;18.50;58.40;;;;;;4993955;28;1363;-70
2022/04/21 02:51:47;;;;;;;;;;;18.50;58.40;;;;;;4992655;28;1319;-69
2022/04/21 02:59:41;;;;;;;;;;;18.50;58.50;;;;;;4992965;28;1261;-69
2022/04/21 03:02:06;;;;;;;;;;;18.50;58.50;;;;;;4993729;28;1344;-70
2022/04/21 03:04:32;;;;;;;;;;;18.50;58.50;;;;;;4993703;28;1359;-69
2022/04/21 03:06:57;;;;;;;;;;;18.50;58.50;;;;;;4993422;28;1243;-69
2022/04/21 03:09:23;;;;;;;;;;;18.40;58.50;;;;;;4993595;28;1303;-70
2022/04/21 03:11:48;;;;;;;;;;;18.50;58.50;;;;;;4992527;28;1490;-70
2022/04/21 03:14:14;;;;;;;;;;;18.50;58.60;;;;;;4993729;28;1080;-71
2022/04/21 03:16:40;;;;;;;;;;;18.40;58.50;;;;;;4993185;28;1906;-69
2022/04/21 03:19:05;;;;;;;;;;;18.40;58.50;;;;;;4993430;28;1324;-70
2022/04/21 03:24:20;;;;;;;;;;;18.40;58.50;;;;;;4993693;28;1053;-71
2022/04/21 03:26:49;;;;;;;;;;;18.40;58.50;;;;;;4993356;28;1208;-70
2022/04/21 03:29:15;;;;;;;;;;;18.40;58.60;;;;;;4993380;28;1299;-71
2022/04/21 03:31:43;;;;;;;;;;;18.40;58.50;;;;;;4992053;28;1178;-70
2022/04/21 03:34:15;;;;;;;;;;;18.40;58.60;;;;;;4993531;28;1120;-72
2022/04/21 03:36:49;;;;;;;;;;;18.40;58.60;;;;;;4993165;28;1894;-70
2022/04/21 03:39:15;;;;;;;;;;;18.40;58.60;;;;;;4992389;28;1327;-70
2022/04/21 03:41:40;;;;;;;;;;;18.40;58.60;;;;;;4993498;28;1124;-70
2022/04/21 03:44:06;;;;;;;;;;;18.40;58.60;;;;;;4993443;28;1053;-70
2022/04/21 03:46:31;;;;;;;;;;;18.40;58.60;;;;;;4993150;28;1061;-71
2022/04/21 03:48:57;;;;;;;;;;;18.40;58.60;;;;;;4992148;28;1136;-69
2022/04/21 03:51:22;;;;;;;;;;;18.40;58.60;;;;;;4993268;28;1288;-69
2022/04/21 03:53:48;;;;;;;;;;;18.40;58.60;;;;;;4992213;28;1122;-70
2022/04/21 03:56:13;;;;;;;;;;;18.40;58.60;;;;;;4992008;28;2021;-69
2022/04/21 03:58:38;;;;;;;;;;;18.40;58.60;;;;;;4993082;28;1294;-70
2022/04/21 04:01:04;;;;;;;;;;;18.40;58.70;;;;;;4993129;28;1298;-69
2022/04/21 04:03:29;;;;;;;;;;;18.40;58.70;;;;;;4992036;28;1092;-70
2022/04/21 04:05:55;;;;;;;;;;;18.40;58.70;;;;;;4993136;28;1347;-69
2022/04/21 04:11:04;;;;;;;;;;;18.40;58.70;;;;;;5002871;28;1301;-70
2022/04/21 04:13:30;;;;;;;;;;;18.40;58.60;;;;;;4995062;28;1300;-70
2022/04/21 04:15:56;;;;;;;;;;;18.40;58.60;;;;;;5002652;28;1279;-69
2022/04/21 04:18:22;;;;;;;;;;;18.40;58.60;;;;;;4992940;28;1895;-70
2022/04/21 04:20:47;;;;;;;;;;;18.50;58.50;;;;;;4991965;28;1308;-70
2022/04/21 04:23:13;;;;;;;;;;;18.50;58.50;;;;;;4991912;28;1209;-69
2022/04/21 04:25:39;;;;;;;;;;;18.50;58.40;;;;;;4992583;28;1084;-71
2022/04/21 04:28:05;;;;;;;;;;;18.60;58.30;;;;;;4992968;28;1512;-69
2022/04/21 04:30:31;;;;;;;;;;;18.60;58.30;;;;;;4991813;28;1157;-69
2022/04/21 04:32:57;;;;;;;;;;;18.60;58.20;;;;;;5009097;28;1222;-69
2022/04/21 04:35:24;;;;;;;;;;;18.60;58.10;;;;;;5016237;28;1080;-70
2022/04/21 04:37:51;;;;;;;;;;;18.60;58.00;;;;;;5001334;28;1899;-70
2022/04/21 04:40:17;;;;;;;;;;;18.70;58.00;;;;;;4995081;28;1295;-70
2022/04/21 04:42:42;;;;;;;;;;;18.70;58.00;;;;;;4996450;28;1141;-70
2022/04/21 04:47:52;;;;;;;;;;;18.70;57.90;;;;;;5015216;28;1113;-71
2022/04/21 04:50:17;;;;;;;;;;;18.70;57.80;;;;;;5015937;28;1229;-70
2022/04/21 04:52:43;;;;;;;;;;;18.80;57.80;;;;;;5015530;28;1416;-70
2022/04/21 04:55:09;;;;;;;;;;;18.80;57.80;;;;;;5016066;28;1154;-71
2022/04/21 04:57:35;;;;;;;;;;;18.80;57.70;;;;;;5014100;28;1891;-69
2022/04/21 05:00:00;;;;;;;;;;;18.80;57.70;;;;;;5015731;28;1260;-70
2022/04/21 05:02:26;;;;;;;;;;;18.80;57.70;;;;;;4998051;28;1290;-69
2022/04/21 05:04:51;;;;;;;;;;;18.80;57.70;;;;;;5015689;28;1323;-69
2022/04/21 05:07:18;;;;;;;;;;;18.80;57.60;;;;;;4997502;28;1274;-69
2022/04/21 05:09:43;;;;;;;;;;;18.80;57.60;;;;;;4997842;28;1257;-69
2022/04/21 05:12:09;;;;;;;;;;;18.80;57.60;;;;;;4997748;28;1194;-70
2022/04/21 05:14:34;;;;;;;;;;;18.90;57.60;;;;;;5014283;28;1295;-69
2022/04/21 05:17:00;;;;;;;;;;;18.90;57.60;;;;;;4996312;28;1957;-69
2022/04/21 05:19:25;;;;;;;;;;;18.90;57.60;;;;;;4978260;28;1265;-70
2022/04/21 05:21:51;;;;;;;;;;;18.90;57.60;;;;;;4995521;28;1273;-69
2022/04/21 05:24:16;;;;;;;;;;;18.90;57.50;;;;;;4995972;28;1265;-69
2022/04/21 05:26:42;;;;;;;;;;;18.90;57.50;;;;;;4994202;28;1211;-68
2022/04/21 05:31:55;;;;;;;;;;;18.90;57.50;;;;;;4994594;28;1223;-70
2022/04/21 05:34:21;;;;;;;;;;;18.90;57.50;;;;;;4977970;28;1377;-68
2022/04/21 05:36:47;;;;;;;;;;;18.90;57.50;;;;;;4993916;28;1902;-68
2022/04/21 05:39:12;;;;;;;;;;;18.90;57.40;;;;;;4995650;28;1245;-69
2022/04/21 05:41:38;;;;;;;;;;;18.90;57.40;;;;;;4977915;28;1358;-70
2022/04/21 05:44:04;;;;;;;;;;;18.90;57.30;;;;;;4993232;28;1152;-69
2022/04/21 05:46:29;;;;;;;;;;;18.90;56.10;;;;;;4994704;28;1097;-70
2022/04/21 05:48:55;;;;;;;;;;;18.90;55.90;;;;;;4993878;28;1311;-70
2022/04/21 05:51:21;;;;;;;;;;;18.90;55.90;;;;;;4977907;28;1334;-70
2022/04/21 05:53:47;;;;;;;;;;;18.90;55.90;;;;;;4995132;28;1132;-70
2022/04/21 05:56:12;;;;;;;;;;;18.90;55.80;;;;;;4993749;28;1093;-70
2022/04/21 05:58:38;;;;;;;;;;;18.90;55.90;;;;;;4994928;28;1960;-70
2022/04/21 06:01:07;;;;;;;;;;;18.90;55.90;;;;;;4994924;28;1156;-70
2022/04/21 06:03:33;;;;;;;;;;;18.90;56.00;;;;;;4993612;28;1096;-70
2022/04/21 06:05:59;;;;;;;;;;;18.90;56.00;;;;;;4977192;28;1271;-71
2022/04/21 06:08:24;;;;;;;;;;;18.90;56.70;;;;;;4974859;28;2026;-71
2022/04/21 06:10:50;;;;;;;;;;;18.90;56.20;;;;;;4990564;28;2161;-73
2022/04/21 06:13:15;;;;;;;;;;;18.90;56.20;;;;;;5000904;28;1516;-72
2022/04/21 06:15:41;;;;;;;;;;;18.90;56.30;;;;;;5006993;28;1953;-69
2022/04/21 06:18:06;;;;;;;;;;;18.90;56.30;;;;;;5004781;28;1911;-68
2022/04/21 06:20:33;;;;;;;;;;;18.90;56.40;;;;;;5009767;28;1298;-69
2022/04/21 06:22:59;;;;;;;;;;;18.90;56.40;;;;;;4993263;28;1271;-69
2022/04/21 06:25:24;;;;;;;;;;;18.90;56.40;;;;;;5009252;28;1298;-71
2022/04/21 06:27:51;;;;;;;;;;;18.90;56.40;;;;;;5012377;28;1291;-70
2022/04/21 06:30:16;;;;;;;;;;;19.00;56.60;;;;;;4994926;28;1351;-71
2022/04/21 06:32:41;;;;;;;;;;;18.90;56.50;;;;;;5010525;28;1173;-71
2022/04/21 06:35:07;;;;;;;;;;;19.00;56.60;;;;;;5011217;28;1245;-71
2022/04/21 06:37:34;;;;;;;;;;;19.00;56.60;;;;;;5009501;28;1910;-71
2022/04/21 06:39:59;;;;;;;;;;;19.00;56.60;;;;;;5005665;28;1268;-71
2022/04/21 06:42:25;;;;;;;;;;;19.00;56.70;;;;;;4992973;28;1358;-71
2022/04/21 06:50:18;;;;;;;;;;;19.00;56.70;;;;;;4993085;28;1356;-71
2022/04/21 06:52:44;;;;;;;;;;;19.00;56.70;;;;;;4976695;28;1348;-70
2022/04/21 06:55:09;;;;;;;;;;;19.00;56.70;;;;;;4993826;28;1267;-72
2022/04/21 06:57:35;;;;;;;;;;;19.00;56.80;;;;;;4993323;28;1954;-71
2022/04/21 07:00:00;;;;;;;;;;;19.00;56.80;;;;;;4994290;28;1260;-71
2022/04/21 07:02:31;;;;;;;;;;;19.00;56.70;;;;;;4994134;28;1085;-71
2022/04/21 07:05:03;;;;;;;;;;;19.00;57.20;;;;;;4992789;28;844;-71
2022/04/21 07:07:28;;;;;;;;;;;19.20;56.60;;;;;;4992527;28;994;-71
2022/04/21 07:09:56;;;;;;;;;;;19.20;56.50;;;;;;4998557;28;2077;-71
2022/04/21 07:12:25;;;;;;;;;;;19.30;56.30;;;;;;4991107;28;1959;-72
2022/04/21 07:14:50;;;;;;;;;;;19.40;56.20;;;;;;5002434;28;1216;-71
2022/04/21 07:17:16;;;;;;;;;;;19.50;56.20;;;;;;5006218;28;1955;-71
2022/04/21 07:19:41;;;;;;;;;;;19.60;56.40;;;;;;5012159;28;1248;-71
2022/04/21 07:22:07;;;;;;;;;;;19.70;56.20;;;;;;5012170;28;1134;-71
2022/04/21 07:24:32;;;;;;;;;;;19.90;56.30;;;;;;5010793;28;1267;-72
2022/04/21 07:26:57;;;;;;;;;;;19.90;56.20;;;;;;5011873;28;1220;-71
2022/04/21 07:29:24;;;;;;;;;;;20.00;56.20;;;;;;5013259;28;1201;-72
2022/04/21 07:31:49;;;;;;;;;;;20.10;56.20;;;;;;5012016;28;856;-72
2022/04/21 07:34:15;;;;;;;;;;;20.10;56.10;;;;;;5013575;28;958;-72
2022/04/21 07:36:41;;;;;;;;;;;20.20;56.00;;;;;;5007783;28;1974;-72
2022/04/21 07:39:07;;;;;;;;;;;20.30;56.00;;;;;;4993466;28;1166;-72
2022/04/21 07:41:32;;;;;;;;;;;20.30;56.00;;;;;;4993538;28;797;-71
2022/04/21 07:43:57;;;;;;;;;;;20.30;56.00;;;;;;4992472;28;978;-70
2022/04/21 07:46:23;;;;;;;;;;;20.30;56.00;;;;;;4993158;28;903;-72
2022/04/21 07:49:49;;;;;;;;;;;20.40;56.10;;;;;;4993625;28;891;-71
2022/04/21 07:51:43;;;;;;;;;;;20.40;56.10;;;;;;4988653;28;1376;-71
2022/04/21 07:54:09;;;;;;;;;;;20.40;56.10;;;;;;4993488;28;1002;-71
2022/04/21 07:56:35;;;;;;;;;;;20.40;56.10;;;;;;4993144;28;1953;-71
2022/04/21 07:59:00;;;;;;;;;;;20.40;56.10;;;;;;4993579;28;863;-71
2022/04/21 08:01:26;;;;;;;;;;;20.40;56.20;;;;;;4993466;28;1147;-72
2022/04/21 08:03:51;;;;;;;;;;;20.50;56.50;;;;;;4992088;28;1347;-72
2022/04/21 08:06:17;;;;;;;;;;;20.50;56.50;;;;;;4992946;28;801;-71
2022/04/21 08:08:42;;;;;;;;;;;20.40;56.50;;;;;;4994384;28;812;-72
2022/04/21 08:11:08;;;;;;;;;;;20.40;56.60;;;;;;5039198;23;3527;-73
2022/04/21 08:13:33;;;;;;;;;;;20.40;56.70;;;;;;5062982;28;1261;-72
2022/04/21 08:15:59;;;;;;;;;;;20.50;57.00;;;;;;5058690;28;1441;-71
2022/04/21 08:18:24;;;;;;;;;;;20.50;57.00;;;;;;5055217;28;1898;-73
2022/04/21 08:20:53;;;;;;;;;;;20.50;57.00;;;;;;5055014;28;1326;-72
2022/04/21 08:23:18;;;;;;;;;;;20.40;57.00;;;;;;5056356;28;850;-73
2022/04/21 08:33:56;;;;;;;;;;;20.40;57.20;;;;;;5036272;28;964;-72
2022/04/21 08:36:21;;;;;;;;;;;20.40;57.30;;;;;;5034626;28;1029;-73
2022/04/21 08:38:47;;;;;;;;;;;20.40;57.40;;;;;;5034815;28;1902;-72
2022/04/21 08:41:15;;;;;;;;;;;20.40;57.50;;;;;;5035608;28;1696;-73
2022/04/21 08:43:40;;;;;;;;;;;20.40;57.60;;;;;;5034990;28;868;-72
2022/04/21 08:46:06;;;;;;;;;;;20.40;57.60;;;;;;5024150;28;2210;-73
2022/04/21 08:48:33;;;;;;;;;;;20.40;57.60;;;;;;5032377;28;1798;-74
2022/04/21 08:50:58;;;;;;;;;;;20.40;57.60;;;;;;5018482;28;1342;-72
2022/04/21 08:53:24;;;;;;;;;;;20.40;57.70;;;;;;5043849;28;2024;-72
2022/04/21 08:55:50;;;;;;;;;;;20.30;57.70;;;;;;5017896;28;1286;-72
2022/04/21 08:58:15;;;;;;;;;;;20.30;57.70;;;;;;5026771;28;1953;-72
2022/04/21 09:00:42;;;;;;;;;;;20.30;57.80;;;;;;5015939;28;1288;-72
2022/04/21 09:03:07;;;;;;;;;;;20.30;57.80;;;;;;5043101;28;1154;-72
2022/04/21 09:05:33;;;;;;;;;;;20.30;57.90;;;;;;5055537;28;1009;-72
2022/04/21 09:07:58;;;;;;;;;;;20.30;57.90;;;;;;5054398;28;808;-73
2022/04/21 09:10:25;;;;;;;;;;;20.30;57.90;;;;;;5054316;28;1230;-72
2022/04/21 09:12:52;;;;;;;;;;;20.30;58.00;;;;;;5054095;28;792;-72
2022/04/21 09:15:18;;;;;;;;;;;20.30;58.00;;;;;;5055366;28;858;-72
2022/04/21 09:17:47;;;;;;;;;;;20.30;58.00;;;;;;5055189;28;1910;-72
2022/04/21 09:20:15;;;;;;;;;;;20.30;58.10;;;;;;5054997;28;1292;-72
2022/04/21 09:22:42;;;;;;;;;;;20.30;58.10;;;;;;5054063;28;852;-73
2022/04/21 09:25:07;;;;;;;;;;;20.30;58.20;;;;;;5055417;28;839;-72
2022/04/21 09:27:40;;;;;;;;;;;20.20;58.10;;;;;;5037113;28;1171;-73
2022/04/21 09:30:10;;;;;;;;;;;20.30;59.00;;;;;;5055199;28;1178;-72
2022/04/21 09:32:36;;;;;;;;;;;20.30;58.30;;;;;;5055185;28;823;-72
2022/04/21 09:35:02;;;;;;;;;;;20.30;58.30;;;;;;5055100;28;1034;-72
2022/04/21 09:37:27;;;;;;;;;;;20.30;58.40;;;;;;5054598;28;1902;-71
2022/04/21 09:39:52;;;;;;;;;;;20.30;58.50;;;;;;5054902;28;1187;-72
2022/04/21 09:42:24;;;;;;;;;;;20.30;58.70;;;;;;5053703;28;862;-71
2022/04/21 09:47:44;;;;;;;;;;;20.30;58.70;;;;;;5778580;22;1690;-69
2022/04/21 09:50:11;;;;;;;;;;;20.30;58.70;;;;;;5047544;28;2428;-69
2022/04/21 09:52:36;;;;;;;;;;;20.30;58.70;;;;;;5041645;28;1504;-69
2022/04/21 09:55:18;;;;;;;;;;;20.30;58.60;;;;;;5054068;28;1393;-69
2022/04/21 09:57:44;;;;;;;;;;;20.30;58.60;;;;;;5037845;28;2262;-69
2022/04/21 10:00:10;;;;;;;;;;;20.30;58.70;;;;;;5049984;28;2199;-70
2022/04/21 10:02:35;;;;;;;;;;;20.30;58.60;;;;;;5067315;22;2304;-70
2022/04/21 10:05:00;;;;;;;;;;;20.30;58.60;;;;;;5046356;28;1015;-71
2022/04/21 10:07:26;;;;;;;;;;;20.30;58.70;;;;;;5054139;28;1233;-70
2022/04/21 10:09:51;;;;;;;;;;;20.30;58.70;;;;;;5062129;28;1831;-72
2022/04/21 10:12:20;;;;;;;;;;;20.30;58.70;;;;;;5069401;28;1295;-71
2022/04/21 10:14:45;;;;;;;;;;;20.30;58.80;;;;;;5070511;28;1283;-71
2022/04/21 10:17:11;;;;;;;;;;;20.30;58.80;;;;;;5074298;28;2231;-71
2022/04/21 10:19:36;;;;;;;;;;;20.30;58.80;;;;;;5052644;28;1258;-72
2022/04/21 10:22:03;;;;;;;;;;;20.30;58.80;;;;;;5076409;28;1278;-74
2022/04/21 10:24:29;;;;;;;;;;;20.30;58.80;;;;;;5060848;28;1201;-71
2022/04/21 10:26:56;;;;;;;;;;;20.30;58.80;;;;;;5062017;28;1150;-70
2022/04/21 10:29:22;;;;;;;;;;;20.30;58.80;;;;;;5078927;28;1273;-70
2022/04/21 10:32:00;;;;;;;;;;;20.30;58.80;;;;;;5064270;28;1327;-71
2022/04/21 10:34:34;;;;;;;;;;;20.30;59.00;;;;;;5089349;28;881;-71
2022/04/21 10:37:11;;;;;;;;;;;20.30;58.90;;;;;;5065778;28;1965;-72
2022/04/21 10:39:37;;;;;;;;;;;20.30;58.90;;;;;;5053564;28;780;-72
2022/04/21 10:42:18;;;;;;;;;;;20.20;59.00;;;;;;5068989;28;1210;-71
2022/04/21 10:44:43;;;;;;;;;;;20.20;59.00;;;;;;5069175;28;608;-71
2022/04/21 10:47:27;;;;;;;;;;;20.20;59.10;;;;;;5053394;28;827;-71
2022/04/21 10:49:56;;;;;;;;;;;20.20;59.10;;;;;;5053592;28;830;-69
2022/04/21 10:57:48;;;;;;;;;;;20.20;59.10;;;;;;5053121;28;1874;-72
2022/04/21 11:00:27;;;;;;;;;;;20.20;59.10;;;;;;5069100;28;847;-72
2022/04/21 11:03:02;;;;;;;;;;;20.20;59.10;;;;;;5068500;28;1232;-72
2022/04/21 11:05:34;;;;;;;;;;;20.20;59.20;;;;;;5053673;28;854;-72
2022/04/21 11:08:00;;;;;;;;;;;20.20;59.20;;;;;;5068558;28;981;-71
2022/04/21 11:10:38;;;;;;;;;;;20.20;59.20;;;;;;5068594;28;894;-71
2022/04/21 11:13:10;;;;;;;;;;;20.20;59.30;;;;;;5052959;28;1279;-71
2022/04/21 11:15:37;;;;;;;;;;;20.20;59.20;;;;;;5076044;28;1178;-70
2022/04/21 11:18:13;;;;;;;;;;;20.20;59.40;;;;;;5076571;28;1955;-71
2022/04/21 11:20:39;;;;;;;;;;;20.10;59.30;;;;;;5068520;28;1001;-71
2022/04/21 11:23:06;;;;;;;;;;;20.10;59.40;;;;;;5068808;28;1283;-72
2022/04/21 11:25:32;;;;;;;;;;;20.10;59.40;;;;;;5051576;28;1144;-71
2022/04/21 11:27:58;;;;;;;;;;;20.10;59.50;;;;;;5068239;28;870;-68
2022/04/21 11:30:23;;;;;;;;;;;20.10;59.50;;;;;;5067734;28;2398;-69
2022/04/21 11:32:50;;;;;;;;;;;20.10;59.60;;;;;;5066949;28;1363;-71
2022/04/21 11:35:16;;;;;;;;;;;20.10;59.50;;;;;;5079903;28;1081;-72
2022/04/21 11:37:45;;;;;;;;;;;20.10;59.60;;;;;;5074264;28;1966;-71
2022/04/21 11:40:23;;;;;;;;;;;20.10;59.60;;;;;;5052658;28;970;-72
2022/04/21 11:42:51;;;;;;;;;;;20.10;59.60;;;;;;5050910;28;1615;-71
2022/04/21 11:45:20;;;;;;;;;;;20.10;59.60;;;;;;5063157;28;1128;-67
2022/04/21 11:47:46;;;;;;;;;;;20.10;59.60;;;;;;5074903;28;1163;-68
2022/04/21 11:50:13;;;;;;;;;;;20.10;59.60;;;;;;5092146;28;934;-69
2022/04/21 11:52:42;;;;;;;;;;;20.00;59.60;;;;;;5076409;28;1185;-75
2022/04/21 11:55:07;;;;;;;;;;;20.00;59.60;;;;;;5075672;28;1381;-70
2022/04/21 11:57:42;;;;;;;;;;;20.00;59.60;;;;;;5091922;28;1890;-71
2022/04/21 12:00:08;;;;;;;;;;;20.00;59.70;;;;;;5071553;28;1274;-70
2022/04/21 12:08:03;;;;;;;;;;;20.00;58.60;;;;;;5063614;28;960;-68
2022/04/21 12:10:29;;;;;;;;;;;20.00;57.80;;;;;;5069123;28;1113;-68
2022/04/21 12:12:54;;;;;;;;;;;19.90;56.50;;;;;;5068801;28;1221;-68
2022/04/21 12:15:27;;;;;;;;;;;19.80;55.60;;;;;;5086228;28;2073;-68
2022/04/21 12:17:52;;;;;;;;;;;19.80;55.30;;;;;;5050880;28;1914;-69
2022/04/21 12:20:17;;;;;;;;;;;19.70;54.50;;;;;;5066961;28;2462;-68
2022/04/21 12:22:43;;;;;;;;;;;19.70;53.90;;;;;;5063545;28;2089;-68
2022/04/21 12:25:12;;;;;;;;;;;19.60;53.60;;;;;;5062797;28;1553;-69
2022/04/21 12:27:38;;;;;;;;;;;19.60;53.30;;;;;;5057589;28;1277;-69
2022/04/21 12:30:04;;;;;;;;;;;19.60;53.20;;;;;;5073099;28;791;-69
2022/04/21 12:32:30;;;;;;;;;;;19.50;53.00;;;;;;5055265;28;1852;-68
2022/04/21 12:34:58;;;;;;;;;;;19.50;52.80;;;;;;5057988;28;1907;-68
2022/04/21 12:37:27;;;;;;;;;;;19.50;52.70;;;;;;5067166;28;1902;-68
2022/04/21 12:39:53;;;;;;;;;;;19.50;52.60;;;;;;5074812;28;1078;-69
2022/04/21 12:42:19;;;;;;;;;;;19.40;52.40;;;;;;5055807;28;1216;-69
2022/04/21 12:44:44;;;;;;;;;;;19.40;52.30;;;;;;5053948;28;867;-68
2022/04/21 12:47:13;;;;;;;;;;;19.40;52.30;;;;;;5062432;28;1086;-68
2022/04/21 12:49:52;;;;;;;;;;;19.40;52.30;;;;;;5074415;28;1339;-68
2022/04/21 12:52:36;;;;;;;;;;;19.30;52.20;;;;;;5091300;28;1303;-69
2022/04/21 12:55:03;;;;;;;;;;;19.40;52.20;;;;;;5090479;28;865;-68
2022/04/21 12:57:29;;;;;;;;;;;19.30;52.10;;;;;;5075441;28;1894;-68
2022/04/21 12:59:54;;;;;;;;;;;19.30;52.10;;;;;;5080305;28;1034;-69
2022/04/21 13:02:20;;;;;;;;;;;19.30;52.10;;;;;;5086669;28;1283;-69
2022/04/21 13:04:45;;;;;;;;;;;19.30;52.00;;;;;;5074218;28;1186;-69
2022/04/21 13:07:11;;;;;;;;;;;19.30;52.00;;;;;;5075310;28;942;-69
2022/04/21 13:09:36;;;;;;;;;;;19.30;52.10;;;;;;5075142;28;1099;-69
2022/04/21 13:12:02;;;;;;;;;;;19.30;51.90;;;;;;5090879;28;1228;-69
2022/04/21 13:14:28;;;;;;;;;;;19.30;52.00;;;;;;5090933;28;1025;-69
2022/04/21 13:16:53;;;;;;;;;;;19.30;52.00;;;;;;5055208;28;1902;-69
2022/04/21 13:19:18;;;;;;;;;;;19.30;52.00;;;;;;5042285;28;1253;-69
2022/04/21 13:21:53;;;;;;;;;;;19.20;52.00;;;;;;5073670;28;1318;-69
2022/04/21 13:24:19;;;;;;;;;;;19.20;52.00;;;;;;5074962;28;803;-69
2022/04/21 13:26:44;;;;;;;;;;;19.20;52.10;;;;;;5074797;28;929;-70
2022/04/21 13:29:10;;;;;;;;;;;19.20;52.20;;;;;;5061725;28;1998;-69
2022/04/21 13:34:19;;;;;;;;;;;19.20;52.00;;;;;;5062553;28;1070;-69
2022/04/21 13:36:45;;;;;;;;;;;19.20;52.00;;;;;;5060414;28;1901;-69
2022/04/21 13:39:11;;;;;;;;;;;19.20;52.00;;;;;;5070192;28;886;-68
2022/04/21 13:41:36;;;;;;;;;;;19.20;51.90;;;;;;5053747;28;1204;-68
2022/04/21 13:44:02;;;;;;;;;;;19.20;51.90;;;;;;5054635;28;1243;-68
2022/04/21 13:46:28;;;;;;;;;;;19.20;51.80;;;;;;5053585;28;974;-68
2022/04/21 13:48:54;;;;;;;;;;;19.20;51.80;;;;;;5064275;28;2397;-69
2022/04/21 13:51:20;;;;;;;;;;;19.10;51.60;;;;;;5081535;28;1296;-69
2022/04/21 13:53:45;;;;;;;;;;;19.10;51.60;;;;;;5074526;28;953;-69
2022/04/21 13:56:11;;;;;;;;;;;19.10;51.50;;;;;;5071650;28;949;-69
2022/04/21 13:58:36;;;;;;;;;;;19.10;51.60;;;;;;5060595;28;1902;-71
2022/04/21 14:01:03;;;;;;;;;;;19.10;51.40;;;;;;5062203;28;1291;-71
2022/04/21 14:03:28;;;;;;;;;;;19.10;52.20;;;;;;5076695;28;2325;-72
2022/04/21 14:05:54;;;;;;;;;;;19.10;52.00;;;;;;5065457;28;1317;-70
2022/04/21 14:08:19;;;;;;;;;;;19.10;52.10;;;;;;5074130;28;854;-70
2022/04/21 14:10:44;;;;;;;;;;;19.10;52.20;;;;;;5043718;28;1113;-70
2022/04/21 14:13:10;;;;;;;;;;;19.10;52.20;;;;;;5033608;28;1170;-70
2022/04/21 14:15:35;;;;;;;;;;;19.10;52.40;;;;;;5047381;28;1132;-70
2022/04/21 14:18:01;;;;;;;;;;;19.10;52.50;;;;;;5060904;28;1914;-70
2022/04/21 14:20:26;;;;;;;;;;;19.10;52.60;;;;;;5069352;28;814;-71
2022/04/21 14:22:52;;;;;;;;;;;19.10;52.70;;;;;;5053799;28;1291;-71
2022/04/21 14:25:17;;;;;;;;;;;19.20;52.90;;;;;;5052904;28;1218;-70
2022/04/21 14:27:43;;;;;;;;;;;19.20;53.00;;;;;;5052218;28;1341;-70
2022/04/21 14:30:09;;;;;;;;;;;19.20;53.00;;;;;;5052440;28;1277;-70
2022/04/21 14:32:35;;;;;;;;;;;19.20;53.10;;;;;;5053609;28;1170;-71
2022/04/21 14:35:00;;;;;;;;;;;19.20;53.20;;;;;;5053688;28;835;-70
2022/04/21 14:45:39;;;;;;;;;;;19.20;53.60;;;;;;5086803;28;681;-71
2022/04/21 14:48:04;;;;;;;;;;;19.20;53.60;;;;;;5073358;28;819;-71
2022/04/21 14:50:30;;;;;;;;;;;19.20;53.70;;;;;;5073491;28;835;-71
2022/04/21 14:52:55;;;;;;;;;;;19.20;53.80;;;;;;5073150;28;1212;-71
2022/04/21 14:55:21;;;;;;;;;;;19.20;53.80;;;;;;5072171;28;827;-71
2022/04/21 14:57:46;;;;;;;;;;;19.20;53.90;;;;;;5073130;28;1956;-71
2022/04/21 15:00:12;;;;;;;;;;;19.20;54.00;;;;;;5088876;28;775;-70
2022/04/21 15:02:37;;;;;;;;;;;19.20;54.00;;;;;;5071774;28;1208;-71
2022/04/21 15:05:03;;;;;;;;;;;19.20;54.10;;;;;;5088975;28;1509;-71
2022/04/21 15:07:28;;;;;;;;;;;19.20;54.10;;;;;;5072890;28;826;-71
2022/04/21 15:09:54;;;;;;;;;;;19.20;54.20;;;;;;5075261;28;1376;-70
2022/04/21 15:12:19;;;;;;;;;;;19.20;54.20;;;;;;5052246;28;1260;-70
2022/04/21 15:14:45;;;;;;;;;;;19.20;54.30;;;;;;5055978;28;960;-71
2022/04/21 15:17:10;;;;;;;;;;;19.20;54.30;;;;;;5066474;28;1969;-70
2022/04/21 15:19:35;;;;;;;;;;;19.20;54.30;;;;;;5032498;28;879;-71
2022/04/21 15:22:01;;;;;;;;;;;19.20;54.40;;;;;;5032245;28;1165;-71
2022/04/21 15:24:30;;;;;;;;;;;19.20;54.40;;;;;;5031488;28;729;-70
2022/04/21 15:26:56;;;;;;;;;;;19.20;54.40;;;;;;5015029;28;1255;-71
2022/04/21 15:29:21;;;;;;;;;;;19.20;54.40;;;;;;5032200;28;946;-71